Kulob Airport
UTDK : now visible

Airfield :











YOU CAN JOIN US ON...

 
LOGIN :

Register | Disclaimer

   EN    FR    IT 

 









Legend :    VFR   Marginal VFR   IFR   Intensive IFR   Very Intensive IFR
Visi :
Ceiling :
>= 8 km
>= 3000ft
5 to 8 km
1000 to 3000 ft
1500m to 5 km
500 to 1000 ft
800 to 1500m
200 to 500 ft
< 800m
< 200 ft
Symbols :   Thunderstorms  Fog  Heavy snow  Heavy precipitations  Wind > 20 kt






- Airport Elevation : 2293 ft
- IATA code : TJU


UTDK - Kulob

CURRENT METAR :
  • 090100Z VRB02MPS 2100 -SN BR BKN003 OVC010 00/M00 Q1031 R01/29//50 RMK QBB090 QFE715/0953

EXPIRED METARs :
  • 090030Z VRB01MPS 3100 -SN BR BKN003 BKN008 OVC010 00/M00 Q1031 R01/29//50 RMK QBB090 QFE715/0953
  • 090000Z VRB01MPS 4800 -SN BR OVC005 00/M00 Q1030 R01/29//50 RMK QBB150 QFE714/0952
  • 082330Z 03001MPS 4800 -SN BR OVC005 01/00 Q1029 R01/29//50 RMK QBB150 QFE713/0951
  • 082300Z 07001MPS 5000 -SN BR BKN004 OVC009 00/M00 Q1029 R01/29//50 RMK QBB120 QFE713/0951
  • 082230Z VRB01MPS 5000 -SN BR OVC004 00/M00 Q1029 R01/29//50 RMK QBB120 QFE714/0951

TAF TAF UTDK
Valid from the 09 at 01:00 until the 09 at 10:00 UTC


090000Z 0901/0910 20005MPS 3100 -SN BR SCT006 BKN012 OVC016
TEMPO 0901/0910 22008G13MPS 1000 SN BR



MET'MAP, your aeronautical weather chart ! - Copyright ORBIFLY December 2007 - Disclaimer

ORBIFLY MET'MAP TEAM :

Programming & Development : Alexandra Zaïnal
Concept & original design : Baudouin d'Aumeries
Assistance for programming : Marc-Olivier Méhu
Technical & hardware support : Manuel Goepfert

Contact : metmap@orbifly.com




SOURCES & CREDITS :

   NOAA       Earth
Advisory